LIPZLDPL

Guest
Details From LIPZ - Venezia Tessera
To LDPL - Pula
Flight Number -
Tags generated
Created
Modified
Stats Distance 76 nm / 141 km
Max Altitude 4,600 ft / 1,402 m
Waypoints 3
Social Downloads 4
Likes 0
Share VATSIM

Download

Looking for another format? Having issues loading an existing format? Contact us
Advertisement - Login to hide

Notes

Basic altitude profile: - Ascent Rate: 2500ft/min - Ascent Speed: 250kts - Cruise Altitude: 15000ft - Cruise Speed: 400kts - Descent Rate: 1500ft/min - Descent Speed: 250kts

Route

LIPZ BAKSO LDPL

ID Type Via Altitude Latitude Longitude Leg Dist Tot Dist Heading (true) Name
O LIPZ APT - 0 ft / 0 m 45.50479˚ 12.34969˚ - 0 nm - Venezia Tessera
BAKSO FIX - 4,600 ft / 1,402 m 45.06389˚ 13.49444˚ 55 nm 55 nm 118° / 119° -
O LDPL APT - 0 ft / 0 m 44.89353˚ 13.92216˚ 20 nm 75 nm 119° / 120° Pula

Altitude Profile

Advertisement - Login to hide

LIPZ

Details ICAO LIPZ (VCE)
Name Venezia Tessera
Region Italy
Timezone Europe/Rome (UTC+1.0)
Stats Elevation 7 ft / 2 m (AMSL)
Location 45.504791° 12.349691°
Runways 2
Magnetic Variation 3.179° E

METAR

LIPZ 122250Z 30004KT 9000 SCT070 06/06 Q1014 NOSIG

Decode

TAF

TAF LIPZ 121700Z 1218/1324 VRB05KT 7000 SCT040 BECMG 1218/1220 3000 BR BKN010 TEMPO 1300/1308 0800 FG BECMG 1306/1309 03012KT SCT025 BECMG 1316/1318 VRB05KT

Decode

Departure Runways

ID Width Length Bearing (true) Bearing (mag) Surface Threshold Offset Overrun Length
04L 148 ft / 45 m 9,112 ft / 2,777 m 42.01° 38.83° Asphalt 312 ft / 95 m 0 ft / 0 m
04R 148 ft / 45 m 10,834 ft / 3,302 m 41.99° 38.81° Asphalt 0 ft / 0 m 0 ft / 0 m
22L 148 ft / 45 m 10,834 ft / 3,302 m 222.01° 218.83° Asphalt 0 ft / 0 m 0 ft / 0 m
22R 148 ft / 45 m 9,112 ft / 2,777 m 222.02° 218.84° Asphalt 0 ft / 0 m 0 ft / 0 m

LDPL

Details ICAO LDPL (PUY)
Name Pula
Region Croatia
Timezone Europe/Zagreb (UTC+1.0)
Stats Elevation 274 ft / 84 m (AMSL)
Location 44.893531° 13.922156°
Runways 1
Magnetic Variation 3.473° E

METAR

LDPL 122300Z AUTO 11006KT 9999 -RA FEW046/// OVC054/// 09/08 Q1015

Decode

TAF

TAF LDPL 121725Z 1218/1318 20008KT 9999 BKN040 TX11/1311Z TN06/1317Z PROB30 TEMPO 1300/1310 BKN008 PROB30 TEMPO 1308/1312 SHRA SCT010 FEW020TCU BKN030 BECMG 1310/1312 28008KT BECMG 1314/1316 VRB02KT

Decode

Destination Runways

ID Width Length Bearing (true) Bearing (mag) Surface Threshold Offset Overrun Length
09 148 ft / 45 m 9,601 ft / 2,926 m 88.24° 84.77° Asphalt 250 ft / 76 m 0 ft / 0 m
27 148 ft / 45 m 9,601 ft / 2,926 m 268.27° 264.80° Asphalt 250 ft / 76 m 0 ft / 0 m

Approach Navaids

Runway Type Ident Frequency Range Bearing (true) Bearing (mag) Slope Elevation
27 Localiser IPU 111.50 MHz 25 nm / 46 km 268.28° 264.81° - 157 ft / 48 m (AMSL)
27 Glidescope IPU 111.50 MHz 25 nm / 46 km 268.28° 264.81° 3.20° 243 ft / 74 m (AMSL)

Popular Alternatives